This is the latest recevied weather packets stored in our database for station/object AE0NK. If no packets are shown the sender has not sent any weather packets the latest 10 day(s).
| Time | Temp. | Humidity | Pressure | Rain* | Wind** | Luminosity | Snow |
|---|---|---|---|---|---|---|---|
| 1777006698 | 15° C | 91% | 1004.4 hPa | 5.59 mm | - | 0 W/m² | - |
| 1777006396 | 15° C | 91% | 1004.3 hPa | 5.33 mm | - | 0 W/m² | - |
| 1777006096 | 15° C | 90% | 1004.5 hPa | 5.33 mm | - | 0 W/m² | - |
| 1777005793 | 15° C | 90% | 1004.5 hPa | 5.33 mm | - | 0 W/m² | - |
| 1777005510 | 15.56° C | 89% | 1004.6 hPa | 5.33 mm | - | 0 W/m² | - |
| 1777005208 | 15.56° C | 88% | 1004.7 hPa | 5.33 mm | - | 0 W/m² | - |
| 1777004907 | 15.56° C | 87% | 1004.5 hPa | 5.08 mm | - | 0 W/m² | - |
| 1777004604 | 16.11° C | 85% | 1005.2 hPa | 4.57 mm | - | 0 W/m² | - |
| 1777004303 | 17.22° C | 82% | 1005 hPa | 3.56 mm | - | 0 W/m² | - |
| 1777004000 | 18.33° C | 79% | 1005.4 hPa | 0.51 mm | - | 0 W/m² | - |
| 1777003699 | 19.44° C | 82% | 1004.3 hPa | 0 mm | - | 0 W/m² | - |
| 1777003399 | 19.44° C | 87% | 1003.1 hPa | 0 mm | - | 0 W/m² | - |
| 1777003095 | 19.44° C | 88% | 1002.4 hPa | 0 mm | - | 0 W/m² | - |
| 1777002792 | 19.44° C | 88% | 1002.4 hPa | 0 mm | - | 0 W/m² | - |
| 1777002511 | 19.44° C | 88% | 1002.2 hPa | 0 mm | - | 0 W/m² | - |
| 1777002209 | 19.44° C | 88% | 1002.1 hPa | 0 mm | - | 0 W/m² | - |
| 1777001907 | 18.89° C | 88% | 1002.2 hPa | 0 mm | - | 0 W/m² | - |
| 1777001606 | 18.89° C | 88% | 1002 hPa | 0.25 mm | - | 0 W/m² | - |
| 1777001305 | 18.89° C | 88% | 1002.1 hPa | 2.03 mm | - | 0 W/m² | - |
| 1777001003 | 18.89° C | 88% | 1002.2 hPa | 2.79 mm | - | 0 W/m² | - |
| 1777000701 | 18.89° C | 87% | 1002.2 hPa | 2.79 mm | - | 0 W/m² | - |
| 1777000399 | 18.33° C | 87% | 1002.2 hPa | 2.79 mm | - | 0 W/m² | - |
| 1777000097 | 18.33° C | 86% | 1002.1 hPa | 4.06 mm | - | 0 W/m² | - |
| 1776999796 | 18.33° C | 86% | 1002.1 hPa | 6.86 mm | - | 0 W/m² | - |
| 1776999494 | 18.33° C | 86% | 1002 hPa | 6.86 mm | - | 0 W/m² | - |
* Rain latest hour (hover to see other rain measurements)
** Current wind speed in m/s (hover to see current wind gust speed)